createdAt,value
2016-07-11T00:00:17.007Z,991.98
2016-07-11T00:01:17.035Z,991.99
2016-07-11T00:02:17.056Z,991.95
2016-07-11T00:03:17.078Z,991.98
2016-07-11T00:04:17.103Z,991.97
2016-07-11T00:05:17.128Z,991.98
2016-07-11T00:06:17.173Z,991.96
2016-07-11T00:07:17.174Z,991.92
2016-07-11T00:08:17.195Z,991.9
2016-07-11T00:09:17.222Z,991.91
2016-07-11T00:10:17.243Z,991.94
2016-07-11T00:11:17.266Z,991.98
2016-07-11T00:12:17.289Z,991.97
2016-07-11T00:13:17.314Z,991.95
2016-07-11T00:14:17.336Z,991.96
2016-07-11T00:15:17.361Z,991.94
2016-07-11T00:16:17.383Z,991.94
2016-07-11T00:17:17.405Z,991.97
2016-07-11T00:18:17.431Z,991.94
2016-07-11T00:19:17.455Z,992.01
2016-07-11T00:20:17.476Z,992
2016-07-11T00:21:17.499Z,991.96
2016-07-11T00:22:17.530Z,991.94
2016-07-11T00:23:17.545Z,991.99
2016-07-11T00:24:17.569Z,991.97
2016-07-11T00:25:17.596Z,991.97
2016-07-11T00:26:17.616Z,992
2016-07-11T00:27:17.640Z,992.02
2016-07-11T00:28:17.665Z,992.03
2016-07-11T00:29:17.687Z,992.11
2016-07-11T00:30:17.708Z,992.15
2016-07-11T00:31:17.731Z,992.14
2016-07-11T00:32:17.755Z,992.13
2016-07-11T00:33:17.779Z,992.11
2016-07-11T00:34:17.803Z,992.18
2016-07-11T00:35:17.827Z,992.18
2016-07-11T00:36:17.846Z,992.14
2016-07-11T00:37:17.874Z,992.16
2016-07-11T00:38:17.894Z,992.13
2016-07-11T00:39:17.920Z,992.17
2016-07-11T00:40:17.945Z,992.12
2016-07-11T00:41:17.963Z,992.13
2016-07-11T00:42:17.988Z,992.19
2016-07-11T00:43:18.010Z,992.18
2016-07-11T00:44:18.035Z,992.19
2016-07-11T00:45:18.053Z,992.19
2016-07-11T00:46:18.075Z,992.19
2016-07-11T00:47:18.102Z,992.21
2016-07-11T00:48:18.122Z,992.21
2016-07-11T00:49:18.149Z,992.26
2016-07-11T00:50:18.169Z,992.24
2016-07-11T00:51:18.193Z,992.2
2016-07-11T00:52:18.213Z,992.24
2016-07-11T00:53:18.239Z,992.29
2016-07-11T00:54:18.263Z,992.37
2016-07-11T00:55:18.283Z,992.39
2016-07-11T00:56:18.305Z,992.4
2016-07-11T00:57:18.329Z,992.41
2016-07-11T00:58:18.350Z,992.37
2016-07-11T00:59:18.371Z,992.34
2016-07-11T01:00:18.394Z,992.36
2016-07-11T01:01:18.422Z,992.35
2016-07-11T01:02:18.441Z,992.4
2016-07-11T01:03:18.462Z,992.41
2016-07-11T01:04:18.488Z,992.42
2016-07-11T01:05:18.512Z,992.41
2016-07-11T01:06:18.531Z,992.42
2016-07-11T01:07:18.556Z,992.5
2016-07-11T01:08:18.576Z,992.46
2016-07-11T01:09:18.599Z,992.51
2016-07-11T01:10:18.623Z,992.5
2016-07-11T01:11:18.639Z,992.53
2016-07-11T01:12:18.665Z,992.52
2016-07-11T01:13:18.696Z,992.51
2016-07-11T01:14:18.723Z,992.52
2016-07-11T01:15:18.735Z,992.53
2016-07-11T01:16:18.757Z,992.52
2016-07-11T01:17:18.779Z,992.56
2016-07-11T01:18:18.802Z,992.55
2016-07-11T01:19:18.824Z,992.55
2016-07-11T01:20:18.847Z,992.52
2016-07-11T01:21:18.874Z,992.5
2016-07-11T01:22:18.902Z,992.53
2016-07-11T01:23:18.911Z,992.57
2016-07-11T01:24:18.936Z,992.62
2016-07-11T01:25:18.957Z,992.62
2016-07-11T01:26:18.978Z,992.6
2016-07-11T01:27:19.004Z,992.61
2016-07-11T01:28:19.023Z,992.59
2016-07-11T01:29:19.044Z,992.61
2016-07-11T01:30:19.070Z,992.61
2016-07-11T01:31:19.092Z,992.59
2016-07-11T01:32:19.119Z,992.58
2016-07-11T01:33:19.137Z,992.58
2016-07-11T01:34:19.156Z,992.57
2016-07-11T01:35:19.183Z,992.55
2016-07-11T01:36:19.203Z,992.56
2016-07-11T01:37:19.226Z,992.56
2016-07-11T01:38:19.250Z,992.55
2016-07-11T01:39:19.269Z,992.55
2016-07-11T01:40:19.289Z,992.53
2016-07-11T01:41:19.317Z,992.54
2016-07-11T01:42:19.347Z,992.52
2016-07-11T01:43:19.358Z,992.55
2016-07-11T01:44:19.381Z,992.51
2016-07-11T01:45:19.401Z,992.55
2016-07-11T01:46:19.426Z,992.57
2016-07-11T01:47:19.448Z,992.55
2016-07-11T01:48:19.470Z,992.57
2016-07-11T01:49:19.495Z,992.59
2016-07-11T01:50:19.518Z,992.56
2016-07-11T01:51:19.535Z,992.58
2016-07-11T01:52:19.558Z,992.54
2016-07-11T01:53:19.584Z,992.54
2016-07-11T01:54:19.602Z,992.53
2016-07-11T01:55:19.626Z,992.54
2016-07-11T01:56:19.647Z,992.57
2016-07-11T01:57:19.672Z,992.59
2016-07-11T01:58:19.692Z,992.6
2016-07-11T01:59:19.713Z,992.57
2016-07-11T02:00:19.735Z,992.62
2016-07-11T02:01:19.759Z,992.63
2016-07-11T02:02:19.779Z,992.66
2016-07-11T02:03:19.804Z,992.67
2016-07-11T02:04:19.826Z,992.71
2016-07-11T02:05:19.845Z,992.73
2016-07-11T02:06:19.867Z,992.73
2016-07-11T02:07:19.892Z,992.71
2016-07-11T02:08:19.923Z,992.71
2016-07-11T02:09:19.938Z,992.72
2016-07-11T02:10:19.963Z,992.7
2016-07-11T02:11:19.984Z,992.69
2016-07-11T02:12:20.006Z,992.76
2016-07-11T02:13:20.021Z,992.74
2016-07-11T02:14:20.043Z,992.75
2016-07-11T02:15:20.068Z,992.78
2016-07-11T02:16:20.087Z,992.79
2016-07-11T02:17:20.109Z,992.77
2016-07-11T02:18:20.139Z,992.81
2016-07-11T02:19:20.153Z,992.74
2016-07-11T02:20:20.175Z,992.72
2016-07-11T02:21:20.196Z,992.76
2016-07-11T02:22:20.218Z,992.75
2016-07-11T02:23:20.240Z,992.71
2016-07-11T02:24:20.271Z,992.69
2016-07-11T02:25:20.285Z,992.72
2016-07-11T02:26:20.312Z,992.73
2016-07-11T02:27:20.329Z,992.72
2016-07-11T02:28:20.351Z,992.75
2016-07-11T02:29:20.372Z,992.76
2016-07-11T02:30:20.396Z,992.8
2016-07-11T02:31:20.419Z,992.79
2016-07-11T02:32:20.438Z,992.78
2016-07-11T02:33:20.467Z,992.79
2016-07-11T02:34:20.484Z,992.77
2016-07-11T02:35:20.504Z,992.81
2016-07-11T02:36:20.526Z,992.79
2016-07-11T02:37:20.553Z,992.79
2016-07-11T02:38:20.575Z,992.77
2016-07-11T02:39:20.592Z,992.76
2016-07-11T02:40:20.620Z,992.77
2016-07-11T02:41:20.638Z,992.76
2016-07-11T02:42:20.667Z,992.75
2016-07-11T02:43:20.683Z,992.76
2016-07-11T02:44:20.709Z,992.74
2016-07-11T02:45:20.726Z,992.74
2016-07-11T02:46:20.745Z,992.78
2016-07-11T02:47:20.773Z,992.8
2016-07-11T02:48:20.794Z,992.78
2016-07-11T02:49:20.813Z,992.76
2016-07-11T02:50:20.837Z,992.77
2016-07-11T02:51:20.859Z,992.75
2016-07-11T02:52:20.882Z,992.73
2016-07-11T02:53:20.904Z,992.72
2016-07-11T02:54:20.926Z,992.7
2016-07-11T02:55:20.942Z,992.72
2016-07-11T02:56:20.968Z,992.72
2016-07-11T02:57:20.992Z,992.7
2016-07-11T02:58:21.016Z,992.73
2016-07-11T02:59:21.038Z,992.69
2016-07-11T03:00:21.062Z,992.67
2016-07-11T03:01:21.081Z,992.69
2016-07-11T03:02:21.097Z,992.71
2016-07-11T03:03:21.117Z,992.71
2016-07-11T03:04:21.137Z,992.78
2016-07-11T03:05:21.158Z,992.75
2016-07-11T03:06:21.191Z,992.82
2016-07-11T03:07:21.200Z,992.82
2016-07-11T03:08:21.235Z,992.84
2016-07-11T03:09:21.247Z,992.85
2016-07-11T03:10:21.268Z,992.88
2016-07-11T03:11:21.289Z,992.89
2016-07-11T03:12:21.319Z,992.88
2016-07-11T03:13:21.332Z,992.91
2016-07-11T03:14:21.355Z,992.93
2016-07-11T03:15:21.378Z,992.95
2016-07-11T03:16:21.398Z,992.94
2016-07-11T03:17:21.421Z,992.92
2016-07-11T03:18:21.438Z,992.9
2016-07-11T03:19:21.461Z,992.94
2016-07-11T03:20:21.486Z,992.93
2016-07-11T03:21:21.507Z,992.88
2016-07-11T03:22:21.525Z,992.87
2016-07-11T03:23:21.546Z,992.86
2016-07-11T03:24:21.575Z,992.87
2016-07-11T03:25:21.592Z,992.84
2016-07-11T03:26:21.624Z,992.84
2016-07-11T03:27:21.633Z,992.84
2016-07-11T03:28:21.656Z,992.81
2016-07-11T03:29:21.674Z,992.78
2016-07-11T03:30:21.700Z,992.79
2016-07-11T03:31:21.723Z,992.82
2016-07-11T03:32:21.747Z,992.8
2016-07-11T03:33:21.763Z,992.81
2016-07-11T03:34:21.785Z,992.78
2016-07-11T03:35:21.809Z,992.8
2016-07-11T03:36:21.833Z,992.83
2016-07-11T03:37:21.850Z,992.88
2016-07-11T03:38:21.880Z,992.85
2016-07-11T03:39:21.895Z,992.89
2016-07-11T03:40:21.917Z,992.93
2016-07-11T03:41:21.937Z,992.89
2016-07-11T03:42:21.958Z,992.91
2016-07-11T03:43:21.979Z,992.87
2016-07-11T03:44:22.000Z,992.91
2016-07-11T03:45:22.024Z,992.91
2016-07-11T03:46:22.045Z,992.96
2016-07-11T03:47:22.068Z,992.94
2016-07-11T03:48:22.091Z,992.95
2016-07-11T03:49:22.111Z,993
2016-07-11T03:50:22.130Z,993
2016-07-11T03:51:22.150Z,993
2016-07-11T03:52:22.172Z,993.05
2016-07-11T03:53:22.191Z,993.02
2016-07-11T03:54:22.217Z,993.01
2016-07-11T03:55:22.236Z,992.95
2016-07-11T03:56:22.260Z,992.91
2016-07-11T03:57:22.280Z,992.9
2016-07-11T03:58:22.299Z,992.87
2016-07-11T03:59:22.322Z,992.9
2016-07-11T04:00:22.342Z,992.9
2016-07-11T04:01:22.367Z,992.88
2016-07-11T04:02:22.388Z,992.93
2016-07-11T04:03:22.411Z,992.91
2016-07-11T04:04:22.429Z,992.95
2016-07-11T04:05:22.450Z,992.89
2016-07-11T04:06:22.478Z,992.9
2016-07-11T04:07:22.495Z,992.88
2016-07-11T04:08:22.517Z,992.89
2016-07-11T04:09:22.540Z,992.91
2016-07-11T04:10:22.560Z,992.87
2016-07-11T04:11:22.580Z,992.85
2016-07-11T04:12:22.600Z,992.86
2016-07-11T04:13:22.623Z,992.84
2016-07-11T04:14:22.643Z,992.87
2016-07-11T04:15:22.669Z,992.87
2016-07-11T04:16:22.696Z,992.84
2016-07-11T04:17:22.711Z,992.87
2016-07-11T04:18:22.730Z,992.83
2016-07-11T04:19:22.754Z,992.84
2016-07-11T04:20:22.775Z,992.86
2016-07-11T04:21:22.796Z,992.84
2016-07-11T04:22:22.818Z,992.86
2016-07-11T04:23:22.841Z,992.84
2016-07-11T04:24:22.867Z,992.82
2016-07-11T04:25:22.884Z,992.85
2016-07-11T04:26:22.903Z,992.86
2016-07-11T04:27:22.928Z,992.84
2016-07-11T04:28:22.956Z,992.9
2016-07-11T04:29:22.970Z,992.95
2016-07-11T04:30:22.988Z,992.95
2016-07-11T04:31:23.012Z,992.98
2016-07-11T04:32:23.034Z,993
2016-07-11T04:33:23.057Z,992.99
2016-07-11T04:34:23.079Z,993.04
2016-07-11T04:35:23.099Z,993.02
2016-07-11T04:36:23.125Z,993.03
2016-07-11T04:37:23.141Z,993.02
2016-07-11T04:38:23.167Z,993.03
2016-07-11T04:39:23.183Z,993.05
2016-07-11T04:40:23.204Z,993.06
2016-07-11T04:41:23.225Z,993.05
2016-07-11T04:42:23.246Z,993.05
2016-07-11T04:43:23.272Z,993.03
2016-07-11T04:44:23.293Z,992.98
2016-07-11T04:45:23.315Z,992.99
2016-07-11T04:46:23.332Z,992.99
2016-07-11T04:47:23.359Z,992.97
2016-07-11T04:48:23.381Z,992.97
2016-07-11T04:49:23.401Z,992.99
2016-07-11T04:50:23.422Z,993.05
2016-07-11T04:51:23.445Z,993.06
2016-07-11T04:52:23.468Z,993.06
2016-07-11T04:53:23.483Z,993.08
2016-07-11T04:54:23.515Z,993.05
2016-07-11T04:55:23.533Z,993
2016-07-11T04:56:23.551Z,993.04
2016-07-11T04:57:23.580Z,993.05
2016-07-11T04:58:23.597Z,993.02
2016-07-11T04:59:23.617Z,993.08
2016-07-11T05:00:23.636Z,993.11
2016-07-11T05:01:23.662Z,993.04
2016-07-11T05:02:23.681Z,993.02
2016-07-11T05:03:23.705Z,993.07
2016-07-11T05:04:23.728Z,993.02
2016-07-11T05:05:23.748Z,993.03
2016-07-11T05:06:23.770Z,993.06
2016-07-11T05:07:23.796Z,993.06
2016-07-11T05:08:23.817Z,993.06
2016-07-11T05:09:23.836Z,993.04
2016-07-11T05:10:23.863Z,993.05
2016-07-11T05:11:23.882Z,993.09
2016-07-11T05:12:23.903Z,993.05
2016-07-11T05:13:23.919Z,993.04
2016-07-11T05:14:23.946Z,993.02
2016-07-11T05:15:23.969Z,993.03
2016-07-11T05:16:23.991Z,993.08
2016-07-11T05:17:24.011Z,993.12
2016-07-11T05:18:24.032Z,993.1
2016-07-11T05:19:24.057Z,993.08
2016-07-11T05:20:24.080Z,993.07
2016-07-11T05:21:24.099Z,993.12
2016-07-11T05:22:24.121Z,993.07
2016-07-11T05:23:24.141Z,993.11
2016-07-11T05:24:24.166Z,993.09
2016-07-11T05:25:24.191Z,993.11
2016-07-11T05:26:24.208Z,993.1
2016-07-11T05:27:24.229Z,993.14
2016-07-11T05:28:24.252Z,993.15
2016-07-11T05:29:24.277Z,993.17
2016-07-11T05:30:24.294Z,993.13
2016-07-11T05:31:24.321Z,993.11
2016-07-11T05:32:24.342Z,993.09
2016-07-11T05:33:24.362Z,993.07
2016-07-11T05:34:24.385Z,993.06
2016-07-11T05:35:24.409Z,993.07
2016-07-11T05:36:24.440Z,993.12
2016-07-11T05:37:24.452Z,993.14
2016-07-11T05:38:24.480Z,993.15
2016-07-11T05:39:24.497Z,993.16
2016-07-11T05:40:24.517Z,993.15
2016-07-11T05:41:24.540Z,993.17
2016-07-11T05:42:24.562Z,993.2
2016-07-11T05:43:24.585Z,993.22
2016-07-11T05:44:24.609Z,993.22
2016-07-11T05:45:24.626Z,993.24
2016-07-11T05:46:24.650Z,993.23
2016-07-11T05:47:24.675Z,993.22
2016-07-11T05:48:24.695Z,993.19
2016-07-11T05:49:24.717Z,993.24
2016-07-11T05:50:24.740Z,993.23
2016-07-11T05:51:24.758Z,993.22
2016-07-11T05:52:24.782Z,993.18
2016-07-11T05:53:24.806Z,993.17
2016-07-11T05:54:24.828Z,993.14
2016-07-11T05:55:24.847Z,993.13
2016-07-11T05:56:24.871Z,993.14
2016-07-11T05:57:24.895Z,993.14
2016-07-11T05:58:24.916Z,993.15
2016-07-11T05:59:24.940Z,993.2
2016-07-11T06:00:24.959Z,993.18
2016-07-11T06:01:24.985Z,993.18
2016-07-11T06:02:25.004Z,993.24
2016-07-11T06:03:25.025Z,993.25
2016-07-11T06:04:25.052Z,993.25
2016-07-11T06:05:25.071Z,993.29
2016-07-11T06:06:25.094Z,993.3
2016-07-11T06:07:25.116Z,993.35
2016-07-11T06:08:25.138Z,993.32
2016-07-11T06:09:25.162Z,993.42
2016-07-11T06:10:25.188Z,993.42
2016-07-11T06:11:25.206Z,993.43
2016-07-11T06:12:25.227Z,993.36
2016-07-11T06:13:25.251Z,993.41
2016-07-11T06:14:25.273Z,993.39
2016-07-11T06:15:25.297Z,993.39
2016-07-11T06:16:25.318Z,993.4
2016-07-11T06:17:25.339Z,993.39
2016-07-11T06:18:25.363Z,993.29
2016-07-11T06:19:25.385Z,993.28
2016-07-11T06:20:25.410Z,993.3
2016-07-11T06:21:25.427Z,993.31
2016-07-11T06:22:25.456Z,993.28
2016-07-11T06:23:25.476Z,993.31
2016-07-11T06:24:25.497Z,993.32
2016-07-11T06:25:25.522Z,993.28
2016-07-11T06:26:25.545Z,993.37
2016-07-11T06:27:25.566Z,993.37
2016-07-11T06:28:25.586Z,993.4
2016-07-11T06:29:25.612Z,993.43
2016-07-11T06:30:25.634Z,993.39
2016-07-11T06:31:25.656Z,993.47
2016-07-11T06:32:25.678Z,993.43
2016-07-11T06:33:25.745Z,993.43
2016-07-11T06:34:25.760Z,993.47
2016-07-11T06:35:25.778Z,993.46
2016-07-11T06:36:25.828Z,993.44
2016-07-11T06:37:25.843Z,993.46
2016-07-11T06:38:25.816Z,993.47
2016-07-11T06:39:25.845Z,993.52
2016-07-11T06:40:25.862Z,993.51
2016-07-11T06:41:25.890Z,993.49
2016-07-11T06:42:25.908Z,993.55
2016-07-11T06:43:25.931Z,993.57
2016-07-11T06:44:25.951Z,993.56
2016-07-11T06:45:25.980Z,993.63
2016-07-11T06:46:25.996Z,993.69
2016-07-11T06:47:26.023Z,993.64
2016-07-11T06:48:26.043Z,993.63
2016-07-11T06:49:26.067Z,993.67
2016-07-11T06:50:26.088Z,993.74
2016-07-11T06:51:26.114Z,993.73
2016-07-11T06:52:26.134Z,993.78
2016-07-11T06:53:26.159Z,993.78
2016-07-11T06:54:26.180Z,993.76
2016-07-11T06:55:26.204Z,993.71
2016-07-11T06:56:26.225Z,993.72
2016-07-11T06:57:26.249Z,993.71
2016-07-11T06:58:26.270Z,993.72
2016-07-11T06:59:26.298Z,993.73
2016-07-11T07:00:26.316Z,993.67
2016-07-11T07:01:26.341Z,993.72
2016-07-11T07:02:26.365Z,993.7
2016-07-11T07:03:26.391Z,993.7
2016-07-11T07:04:26.408Z,993.71
2016-07-11T07:05:26.435Z,993.73
2016-07-11T07:06:26.457Z,993.73
2016-07-11T07:07:26.481Z,993.69
2016-07-11T07:08:26.502Z,993.67
2016-07-11T07:09:26.537Z,993.72
2016-07-11T07:10:26.553Z,993.72
2016-07-11T07:11:26.573Z,993.73
2016-07-11T07:12:26.594Z,993.76
2016-07-11T07:13:26.616Z,993.74
2016-07-11T07:14:26.641Z,993.7
2016-07-11T07:15:26.662Z,993.71
2016-07-11T07:16:26.686Z,993.72
2016-07-11T07:17:26.711Z,993.68
2016-07-11T07:18:26.732Z,993.72
2016-07-11T07:19:26.757Z,993.72
2016-07-11T07:20:26.817Z,993.73
2016-07-11T07:21:26.802Z,993.76
2016-07-11T07:22:26.865Z,993.76
2016-07-11T07:23:26.850Z,993.75
2016-07-11T07:24:26.885Z,993.74
2016-07-11T07:25:26.893Z,993.74
2016-07-11T07:26:26.954Z,993.67
2016-07-11T07:27:26.940Z,993.63
2016-07-11T07:28:27.029Z,993.61
2016-07-11T07:29:26.985Z,993.65
2016-07-11T07:30:27.040Z,993.65
2016-07-11T07:31:27.035Z,993.69
2016-07-11T07:32:27.074Z,993.76
2016-07-11T07:33:27.083Z,993.77
2016-07-11T07:34:27.101Z,993.84
2016-07-11T07:35:27.128Z,993.79
2016-07-11T07:36:27.147Z,993.81
2016-07-11T07:37:27.171Z,993.83
2016-07-11T07:38:27.195Z,993.81
2016-07-11T07:39:27.221Z,993.74
2016-07-11T07:40:27.239Z,993.82
2016-07-11T07:41:27.266Z,993.79
2016-07-11T07:42:27.285Z,993.83
2016-07-11T07:43:27.311Z,993.92
2016-07-11T07:44:27.333Z,994.01
2016-07-11T07:45:27.354Z,993.93
2016-07-11T07:46:27.377Z,993.87
2016-07-11T07:47:27.403Z,993.93
2016-07-11T07:48:27.423Z,993.94
2016-07-11T07:49:27.446Z,993.96
2016-07-11T07:50:27.470Z,994.03
2016-07-11T07:51:27.494Z,993.97
2016-07-11T07:52:27.514Z,994.05
2016-07-11T07:53:27.543Z,994.04
2016-07-11T07:54:27.562Z,993.99
2016-07-11T07:55:27.588Z,993.98
2016-07-11T07:56:27.606Z,993.92
2016-07-11T07:57:27.634Z,993.99
2016-07-11T07:58:27.662Z,994.02
2016-07-11T07:59:27.677Z,994.02
2016-07-11T08:00:27.699Z,993.98
2016-07-11T08:01:27.728Z,993.97
2016-07-11T08:02:27.746Z,993.98
2016-07-11T08:03:27.770Z,994.03
2016-07-11T08:04:27.790Z,994
2016-07-11T08:05:27.816Z,993.98
2016-07-11T08:06:27.840Z,993.95
2016-07-11T08:07:27.861Z,994.02
2016-07-11T08:08:27.886Z,994.03
2016-07-11T08:09:27.915Z,993.92
2016-07-11T08:10:27.936Z,993.93
2016-07-11T08:11:27.961Z,993.98
2016-07-11T08:12:27.982Z,993.98
2016-07-11T08:13:28.007Z,993.97
2016-07-11T08:14:28.027Z,994.03
2016-07-11T08:15:28.052Z,993.97
2016-07-11T08:16:28.081Z,993.99
2016-07-11T08:17:28.101Z,993.95
2016-07-11T08:18:28.125Z,993.93
2016-07-11T08:19:28.150Z,993.88
2016-07-11T08:20:28.175Z,993.91
2016-07-11T08:21:28.197Z,993.91
2016-07-11T08:22:28.218Z,993.94
2016-07-11T08:23:28.245Z,993.84
2016-07-11T08:24:28.267Z,993.91
2016-07-11T08:25:28.295Z,993.97
2016-07-11T08:26:28.312Z,993.82
2016-07-11T08:27:28.341Z,993.91
2016-07-11T08:28:28.364Z,993.94
2016-07-11T08:29:28.384Z,993.9
2016-07-11T08:30:28.409Z,993.93
2016-07-11T08:31:28.435Z,993.9
2016-07-11T08:32:28.461Z,993.94
2016-07-11T08:33:28.481Z,993.97
2016-07-11T08:34:28.505Z,993.93
2016-07-11T08:35:28.529Z,993.94
2016-07-11T08:36:28.557Z,993.95
2016-07-11T08:37:28.576Z,993.89
2016-07-11T08:38:28.601Z,993.82
2016-07-11T08:39:28.622Z,993.8
2016-07-11T08:40:28.644Z,993.89
2016-07-11T08:41:28.672Z,993.97
2016-07-11T08:42:28.694Z,994.01
2016-07-11T08:43:28.718Z,994
2016-07-11T08:44:28.740Z,993.95
2016-07-11T08:45:28.764Z,993.97
2016-07-11T08:46:28.788Z,993.99
2016-07-11T08:47:28.813Z,993.99
2016-07-11T08:48:28.835Z,994.06
2016-07-11T08:49:28.856Z,994
2016-07-11T08:50:28.883Z,993.94
2016-07-11T08:51:28.901Z,994.03
2016-07-11T08:52:28.927Z,994.1
2016-07-11T08:53:28.951Z,994
2016-07-11T08:54:28.984Z,993.99
2016-07-11T08:55:28.999Z,993.99
2016-07-11T08:56:29.021Z,993.99
2016-07-11T08:57:29.049Z,993.99
2016-07-11T08:58:29.069Z,993.99
2016-07-11T08:59:29.092Z,993.97
2016-07-11T09:00:29.116Z,993.98
2016-07-11T09:01:29.143Z,993.96
2016-07-11T09:02:29.162Z,994.03
2016-07-11T09:03:29.187Z,994.04
2016-07-11T09:04:29.214Z,994.21
2016-07-11T09:05:29.233Z,994.12
2016-07-11T09:06:29.260Z,994.12
2016-07-11T09:07:29.284Z,994.12
2016-07-11T09:08:29.309Z,994.09
2016-07-11T09:09:29.327Z,994.1
2016-07-11T09:10:29.353Z,994.2
2016-07-11T09:11:29.376Z,994.28
2016-07-11T09:12:29.400Z,994.34
2016-07-11T09:13:29.422Z,994.33
2016-07-11T09:14:29.445Z,994.35
2016-07-11T09:15:29.469Z,994.33
2016-07-11T09:16:29.492Z,994.42
2016-07-11T09:17:29.519Z,994.36
2016-07-11T09:18:29.539Z,994.41
2016-07-11T09:19:29.564Z,994.39
2016-07-11T09:20:29.585Z,994.39
2016-07-11T09:21:29.609Z,994.4
2016-07-11T09:22:29.632Z,994.39
2016-07-11T09:23:29.657Z,994.35
2016-07-11T09:24:29.680Z,994.43
2016-07-11T09:25:29.704Z,994.43
2016-07-11T09:26:29.729Z,994.35
2016-07-11T09:27:29.755Z,994.4
2016-07-11T09:28:29.778Z,994.33
2016-07-11T09:29:29.803Z,994.35
2016-07-11T09:30:29.827Z,994.38
2016-07-11T09:31:29.846Z,994.33
2016-07-11T09:32:29.873Z,994.27
2016-07-11T09:33:29.899Z,994.31
2016-07-11T09:34:29.923Z,994.28
2016-07-11T09:35:29.945Z,994.23
2016-07-11T09:36:29.973Z,994.28
2016-07-11T09:37:29.996Z,994.29
2016-07-11T09:38:30.018Z,994.16
2016-07-11T09:39:30.043Z,994.17
2016-07-11T09:40:30.066Z,994.13
2016-07-11T09:41:30.093Z,994.1
2016-07-11T09:42:30.115Z,994.14
2016-07-11T09:43:30.139Z,994.2
2016-07-11T09:44:30.160Z,994.19
2016-07-11T09:45:30.185Z,994.24
2016-07-11T09:46:30.212Z,994.24
2016-07-11T09:47:30.234Z,994.37
2016-07-11T09:48:30.261Z,994.32
2016-07-11T09:49:30.286Z,994.27
2016-07-11T09:50:30.311Z,994.31
2016-07-11T09:51:30.335Z,994.37
2016-07-11T09:52:30.359Z,994.27
2016-07-11T09:53:30.382Z,994.23
2016-07-11T09:54:30.406Z,994.19
2016-07-11T09:55:30.433Z,994.21
2016-07-11T09:56:30.457Z,994.22
2016-07-11T09:57:30.480Z,994.21
2016-07-11T09:58:30.501Z,994.22
2016-07-11T09:59:30.527Z,994.28
2016-07-11T10:00:30.552Z,994.24
2016-07-11T10:01:30.576Z,994.37
2016-07-11T10:02:30.596Z,994.33
2016-07-11T10:03:30.623Z,994.27
2016-07-11T10:04:30.649Z,994.22
2016-07-11T10:05:30.671Z,994.23
2016-07-11T10:06:30.700Z,994.26
2016-07-11T10:07:30.724Z,994.25
2016-07-11T10:08:30.741Z,994.2
2016-07-11T10:09:30.766Z,994.22
2016-07-11T10:10:30.791Z,994.18
2016-07-11T10:11:30.818Z,994.07
2016-07-11T10:12:30.840Z,994.17
2016-07-11T10:13:30.865Z,994.2
2016-07-11T10:14:30.892Z,994.2
2016-07-11T10:15:30.913Z,994.19
2016-07-11T10:16:30.938Z,994.24
2016-07-11T10:17:30.963Z,994.2
2016-07-11T10:18:30.988Z,994.2
2016-07-11T10:19:31.009Z,994.22
2016-07-11T10:20:31.037Z,994.21
2016-07-11T10:21:31.058Z,994.24
2016-07-11T10:22:31.083Z,994.33
2016-07-11T10:23:31.105Z,994.34
2016-07-11T10:24:31.130Z,994.34
2016-07-11T10:25:31.158Z,994.3
2016-07-11T10:26:31.180Z,994.26
2016-07-11T10:27:31.207Z,994.21
2016-07-11T10:28:31.229Z,994.16
2016-07-11T10:29:31.252Z,994.22
2016-07-11T10:30:31.276Z,994.29
2016-07-11T10:31:31.308Z,994.22
2016-07-11T10:32:31.326Z,994.19
2016-07-11T10:33:31.349Z,994.28
2016-07-11T10:34:31.376Z,994.21
2016-07-11T10:35:31.399Z,994.2
2016-07-11T10:36:31.423Z,994.36
2016-07-11T10:37:31.445Z,994.27
2016-07-11T10:38:31.474Z,994.38
2016-07-11T10:39:31.495Z,994.37
2016-07-11T10:40:31.521Z,994.34
2016-07-11T10:41:31.544Z,994.44
2016-07-11T10:42:31.572Z,994.42
2016-07-11T10:43:31.596Z,994.29
2016-07-11T10:44:31.622Z,994.26
2016-07-11T10:45:31.641Z,994.31
2016-07-11T10:46:31.669Z,994.35
2016-07-11T10:47:31.692Z,994.41
2016-07-11T10:48:31.716Z,994.52
2016-07-11T10:49:31.739Z,994.43
2016-07-11T10:50:31.771Z,994.43
2016-07-11T10:51:31.789Z,994.37
2016-07-11T10:52:31.815Z,994.37
2016-07-11T10:53:31.838Z,994.47
2016-07-11T10:54:31.864Z,994.53
2016-07-11T10:55:31.884Z,994.35
2016-07-11T10:56:31.909Z,994.44
2016-07-11T10:57:31.934Z,994.42
2016-07-11T10:58:31.958Z,994.31
2016-07-11T10:59:31.985Z,994.34
2016-07-11T11:00:32.007Z,994.38
2016-07-11T11:01:32.034Z,994.4
2016-07-11T11:02:32.058Z,994.46
2016-07-11T11:03:32.083Z,994.58
2016-07-11T11:04:32.105Z,994.61
2016-07-11T11:05:32.133Z,994.53
2016-07-11T11:06:32.154Z,994.55
2016-07-11T11:07:32.180Z,994.58
2016-07-11T11:08:32.203Z,994.61
2016-07-11T11:09:32.230Z,994.66
2016-07-11T11:10:32.254Z,994.68
2016-07-11T11:11:32.279Z,994.59
2016-07-11T11:12:32.303Z,994.65
2016-07-11T11:13:32.328Z,994.74
2016-07-11T11:14:32.352Z,994.66
2016-07-11T11:15:32.379Z,994.68
2016-07-11T11:16:32.402Z,994.75
2016-07-11T11:17:32.424Z,994.58
2016-07-11T11:18:32.446Z,994.63
2016-07-11T11:19:32.474Z,994.66
2016-07-11T11:20:32.499Z,994.72
2016-07-11T11:21:32.521Z,994.86
2016-07-11T11:22:32.546Z,994.75
2016-07-11T11:23:32.570Z,994.85
2016-07-11T11:24:32.594Z,994.88
2016-07-11T11:25:32.620Z,994.83
2016-07-11T11:26:32.647Z,994.69
2016-07-11T11:27:32.666Z,994.72
2016-07-11T11:28:32.693Z,994.66
2016-07-11T11:29:32.717Z,994.59
2016-07-11T11:30:32.743Z,994.58
2016-07-11T11:31:32.767Z,994.62
2016-07-11T11:32:32.793Z,994.52
2016-07-11T11:33:32.815Z,994.6
2016-07-11T11:34:32.839Z,994.63
2016-07-11T11:35:32.863Z,994.65
2016-07-11T11:36:32.888Z,994.63
2016-07-11T11:37:32.910Z,994.65
2016-07-11T11:38:32.940Z,994.65
2016-07-11T11:39:32.958Z,994.57
2016-07-11T11:40:32.984Z,994.69
2016-07-11T11:41:33.005Z,994.63
2016-07-11T11:42:33.032Z,994.68
2016-07-11T11:43:33.059Z,994.62
2016-07-11T11:44:33.080Z,994.67
2016-07-11T11:45:33.103Z,994.65
2016-07-11T11:46:33.129Z,994.6
2016-07-11T11:47:33.150Z,994.67
2016-07-11T11:48:33.174Z,994.65
2016-07-11T11:49:33.200Z,994.74
2016-07-11T11:50:33.224Z,994.68
2016-07-11T11:51:33.249Z,994.7
2016-07-11T11:52:33.272Z,994.64
2016-07-11T11:53:33.298Z,994.67
2016-07-11T11:54:33.322Z,994.73
2016-07-11T11:55:33.345Z,994.68
2016-07-11T11:56:33.365Z,994.64
2016-07-11T11:57:33.391Z,994.67
2016-07-11T11:58:33.415Z,994.71
2016-07-11T11:59:33.439Z,994.72
2016-07-11T12:00:33.469Z,994.69
2016-07-11T12:01:33.489Z,994.71
2016-07-11T12:02:33.511Z,994.73
2016-07-11T12:03:33.537Z,994.69
2016-07-11T12:04:33.558Z,994.8
2016-07-11T12:05:33.583Z,994.74
2016-07-11T12:06:33.605Z,994.67
2016-07-11T12:07:33.634Z,994.63
2016-07-11T12:08:33.656Z,994.61
2016-07-11T12:09:33.677Z,994.67
2016-07-11T12:10:33.703Z,994.6
2016-07-11T12:11:33.730Z,994.62
2016-07-11T12:12:33.752Z,994.58
2016-07-11T12:13:33.777Z,994.61
2016-07-11T12:14:33.803Z,994.58
2016-07-11T12:15:33.822Z,994.64
2016-07-11T12:16:33.850Z,994.55
2016-07-11T12:17:33.875Z,994.66
2016-07-11T12:18:33.897Z,994.64
2016-07-11T12:19:33.923Z,994.64
2016-07-11T12:20:33.946Z,994.72
2016-07-11T12:21:33.970Z,994.62
2016-07-11T12:22:33.991Z,994.59
2016-07-11T12:23:34.034Z,994.63
2016-07-11T12:24:34.043Z,994.69
2016-07-11T12:25:34.068Z,994.64
2016-07-11T12:26:34.091Z,994.67
2016-07-11T12:27:34.115Z,994.67
2016-07-11T12:28:34.138Z,994.58
2016-07-11T12:29:34.162Z,994.6
2016-07-11T12:30:34.189Z,994.6
2016-07-11T12:31:34.214Z,994.6